sensor_id;sensor_type;location;lat;lon;timestamp;pressure;altitude;pressure_sealevel;temperature;humidity
44385;BME280;30101;32.778;34.994;2023-01-31T00:04:02;96950.50;;;11.98;69.60
44385;BME280;30101;32.778;34.994;2023-01-31T00:09:08;96963.31;;;11.72;69.34
44385;BME280;30101;32.778;34.994;2023-01-31T00:14:17;96990.56;;;10.87;71.27
44385;BME280;30101;32.778;34.994;2023-01-31T00:19:20;97002.22;;;10.21;73.05
44385;BME280;30101;32.778;34.994;2023-01-31T00:24:23;96995.88;;;9.85;73.10
44385;BME280;30101;32.778;34.994;2023-01-31T00:29:27;96986.50;;;9.83;73.32
44385;BME280;30101;32.778;34.994;2023-01-31T00:34:31;96982.56;;;9.85;73.00
44385;BME280;30101;32.778;34.994;2023-01-31T00:39:34;96967.56;;;10.03;73.32
44385;BME280;30101;32.778;34.994;2023-01-31T00:44:38;96965.16;;;10.31;72.56
44385;BME280;30101;32.778;34.994;2023-01-31T00:49:42;96958.94;;;10.61;72.07
44385;BME280;30101;32.778;34.994;2023-01-31T00:54:45;96946.00;;;10.88;71.47
44385;BME280;30101;32.778;34.994;2023-01-31T00:59:49;96950.06;;;11.02;71.03
44385;BME280;30101;32.778;34.994;2023-01-31T01:04:52;96954.00;;;10.76;71.12
44385;BME280;30101;32.778;34.994;2023-01-31T01:09:55;96941.66;;;10.51;71.83
44385;BME280;30101;32.778;34.994;2023-01-31T01:14:59;96947.16;;;10.26;72.70
44385;BME280;30101;32.778;34.994;2023-01-31T01:20:02;96943.75;;;9.89;74.73
44385;BME280;30101;32.778;34.994;2023-01-31T01:25:06;96936.38;;;9.55;75.43
44385;BME280;30101;32.778;34.994;2023-01-31T01:30:11;96923.16;;;9.30;75.89
44385;BME280;30101;32.778;34.994;2023-01-31T01:35:14;96920.72;;;9.28;76.00
44385;BME280;30101;32.778;34.994;2023-01-31T01:40:17;96910.72;;;9.42;75.29
44385;BME280;30101;32.778;34.994;2023-01-31T01:45:21;96916.03;;;9.60;74.78
44385;BME280;30101;32.778;34.994;2023-01-31T01:50:34;96922.84;;;9.75;75.72
44385;BME280;30101;32.778;34.994;2023-01-31T01:56:00;96919.06;;;9.64;76.54
44385;BME280;30101;32.778;34.994;2023-01-31T02:01:06;96908.84;;;9.61;75.97
44385;BME280;30101;32.778;34.994;2023-01-31T02:06:10;96900.09;;;9.72;76.33
44385;BME280;30101;32.778;34.994;2023-01-31T02:11:23;96896.09;;;9.93;75.59
44385;BME280;30101;32.778;34.994;2023-01-31T02:16:27;96885.06;;;10.19;75.30
44385;BME280;30101;32.778;34.994;2023-01-31T02:27:33;96893.03;;;10.73;74.48
44385;BME280;30101;32.778;34.994;2023-01-31T02:32:52;96881.44;;;10.79;73.70
44385;BME280;30101;32.778;34.994;2023-01-31T02:43:22;96866.34;;;10.96;73.16
44385;BME280;30101;32.778;34.994;2023-01-31T02:53:53;96885.34;;;11.23;73.22
44385;BME280;30101;32.778;34.994;2023-01-31T02:59:07;96876.47;;;11.34;73.41
44385;BME280;30101;32.778;34.994;2023-01-31T03:04:13;96898.91;;;11.45;72.11
44385;BME280;30101;32.778;34.994;2023-01-31T03:14:28;96908.25;;;11.59;71.08
44385;BME280;30101;32.778;34.994;2023-01-31T03:25:09;96883.66;;;11.74;70.31
44385;BME280;30101;32.778;34.994;2023-01-31T03:30:34;96883.22;;;11.77;69.74
44385;BME280;30101;32.778;34.994;2023-01-31T03:35:40;96871.84;;;11.82;69.84
44385;BME280;30101;32.778;34.994;2023-01-31T03:41:13;96876.94;;;11.72;69.87
44385;BME280;30101;32.778;34.994;2023-01-31T03:46:28;96883.03;;;11.15;70.79
44385;BME280;30101;32.778;34.994;2023-01-31T03:51:35;96900.84;;;10.63;71.53
44385;BME280;30101;32.778;34.994;2023-01-31T04:02:05;96904.88;;;10.53;72.62
44385;BME280;30101;32.778;34.994;2023-01-31T04:07:11;96907.69;;;10.70;72.89
44385;BME280;30101;32.778;34.994;2023-01-31T04:12:15;96917.19;;;10.78;73.43
44385;BME280;30101;32.778;34.994;2023-01-31T04:17:18;96926.00;;;10.78;73.76
44385;BME280;30101;32.778;34.994;2023-01-31T04:22:21;96948.28;;;10.72;73.20
44385;BME280;30101;32.778;34.994;2023-01-31T04:27:24;96943.00;;;10.42;73.12
44385;BME280;30101;32.778;34.994;2023-01-31T04:32:28;96936.88;;;10.12;73.44
44385;BME280;30101;32.778;34.994;2023-01-31T04:37:31;96958.97;;;9.70;74.55
44385;BME280;30101;32.778;34.994;2023-01-31T04:42:34;96942.19;;;9.52;75.15
44385;BME280;30101;32.778;34.994;2023-01-31T04:47:38;96973.19;;;9.46;75.41
44385;BME280;30101;32.778;34.994;2023-01-31T04:52:41;96992.94;;;9.38;76.14
44385;BME280;30101;32.778;34.994;2023-01-31T04:57:44;96999.13;;;9.14;76.10
44385;BME280;30101;32.778;34.994;2023-01-31T05:02:48;97005.22;;;8.96;76.65
44385;BME280;30101;32.778;34.994;2023-01-31T05:07:51;97039.66;;;8.91;76.63
44385;BME280;30101;32.778;34.994;2023-01-31T05:12:54;97018.41;;;8.84;76.93
44385;BME280;30101;32.778;34.994;2023-01-31T05:17:57;97028.47;;;8.82;76.54
44385;BME280;30101;32.778;34.994;2023-01-31T05:23:01;97018.59;;;8.89;76.51
44385;BME280;30101;32.778;34.994;2023-01-31T05:28:04;97012.13;;;9.04;76.93
44385;BME280;30101;32.778;34.994;2023-01-31T05:33:09;97013.09;;;9.09;76.59
44385;BME280;30101;32.778;34.994;2023-01-31T05:38:14;97014.53;;;9.12;76.85
44385;BME280;30101;32.778;34.994;2023-01-31T05:43:18;97009.19;;;9.12;76.86
44385;BME280;30101;32.778;34.994;2023-01-31T05:48:21;96994.84;;;9.13;77.46
44385;BME280;30101;32.778;34.994;2023-01-31T05:53:24;96989.22;;;9.21;77.76
44385;BME280;30101;32.778;34.994;2023-01-31T05:58:27;97000.41;;;9.30;77.63
44385;BME280;30101;32.778;34.994;2023-01-31T06:03:31;97003.84;;;9.37;77.25
44385;BME280;30101;32.778;34.994;2023-01-31T06:08:34;97008.28;;;9.43;77.56
44385;BME280;30101;32.778;34.994;2023-01-31T06:13:38;97014.78;;;9.47;77.79
44385;BME280;30101;32.778;34.994;2023-01-31T06:18:41;97019.88;;;9.49;77.73
44385;BME280;30101;32.778;34.994;2023-01-31T06:23:46;97024.31;;;9.55;78.10
44385;BME280;30101;32.778;34.994;2023-01-31T06:28:49;97039.50;;;9.54;77.85
44385;BME280;30101;32.778;34.994;2023-01-31T06:33:52;97042.16;;;9.54;78.03
44385;BME280;30101;32.778;34.994;2023-01-31T06:38:56;97036.84;;;9.54;78.13
44385;BME280;30101;32.778;34.994;2023-01-31T06:43:59;97051.13;;;9.60;78.37
44385;BME280;30101;32.778;34.994;2023-01-31T06:49:03;97058.78;;;9.75;77.86
44385;BME280;30101;32.778;34.994;2023-01-31T06:54:06;97071.66;;;9.96;77.59
44385;BME280;30101;32.778;34.994;2023-01-31T06:59:09;97070.78;;;10.02;77.16
44385;BME280;30101;32.778;34.994;2023-01-31T07:04:13;97056.84;;;10.00;78.28
44385;BME280;30101;32.778;34.994;2023-01-31T07:09:16;97067.13;;;9.96;78.18
44385;BME280;30101;32.778;34.994;2023-01-31T07:14:19;97071.19;;;9.99;78.58
44385;BME280;30101;32.778;34.994;2023-01-31T07:19:23;97059.78;;;10.10;78.83
44385;BME280;30101;32.778;34.994;2023-01-31T07:24:26;97078.47;;;10.29;78.12
44385;BME280;30101;32.778;34.994;2023-01-31T07:29:29;97081.03;;;10.53;76.95
44385;BME280;30101;32.778;34.994;2023-01-31T07:34:33;97087.59;;;10.69;77.24
44385;BME280;30101;32.778;34.994;2023-01-31T07:39:36;97089.69;;;10.79;77.91
44385;BME280;30101;32.778;34.994;2023-01-31T07:44:39;97092.88;;;10.88;78.28
44385;BME280;30101;32.778;34.994;2023-01-31T07:49:42;97091.88;;;11.00;78.39
44385;BME280;30101;32.778;34.994;2023-01-31T07:54:45;97099.88;;;11.12;77.99
44385;BME280;30101;32.778;34.994;2023-01-31T07:59:49;97097.09;;;11.19;78.07
44385;BME280;30101;32.778;34.994;2023-01-31T08:04:52;97087.25;;;11.31;78.08
44385;BME280;30101;32.778;34.994;2023-01-31T08:09:55;97095.75;;;11.28;77.89
44385;BME280;30101;32.778;34.994;2023-01-31T08:15:00;97086.22;;;11.32;78.30
44385;BME280;30101;32.778;34.994;2023-01-31T08:20:05;97087.41;;;11.59;78.27
44385;BME280;30101;32.778;34.994;2023-01-31T08:25:10;97084.16;;;11.69;78.13
44385;BME280;30101;32.778;34.994;2023-01-31T08:30:14;97094.25;;;11.67;78.99
44385;BME280;30101;32.778;34.994;2023-01-31T08:35:17;97087.19;;;11.84;78.34
44385;BME280;30101;32.778;34.994;2023-01-31T08:40:21;97081.94;;;11.90;78.28
44385;BME280;30101;32.778;34.994;2023-01-31T08:45:24;97077.84;;;11.75;79.47
44385;BME280;30101;32.778;34.994;2023-01-31T08:50:29;97080.88;;;11.91;79.22
44385;BME280;30101;32.778;34.994;2023-01-31T08:55:34;97061.88;;;12.44;78.51
44385;BME280;30101;32.778;34.994;2023-01-31T09:00:38;97057.53;;;12.55;78.70
44385;BME280;30101;32.778;34.994;2023-01-31T09:05:43;97047.84;;;12.65;78.13
44385;BME280;30101;32.778;34.994;2023-01-31T09:10:51;97019.44;;;12.81;78.04
44385;BME280;30101;32.778;34.994;2023-01-31T09:16:03;97040.38;;;12.67;78.42
44385;BME280;30101;32.778;34.994;2023-01-31T09:21:13;97033.81;;;12.75;78.46
44385;BME280;30101;32.778;34.994;2023-01-31T09:26:17;97025.97;;;13.02;78.09
44385;BME280;30101;32.778;34.994;2023-01-31T09:31:20;97020.38;;;13.04;77.67
44385;BME280;30101;32.778;34.994;2023-01-31T09:36:23;97026.50;;;12.87;77.88
44385;BME280;30101;32.778;34.994;2023-01-31T09:41:28;97018.31;;;12.77;78.10
44385;BME280;30101;32.778;34.994;2023-01-31T09:46:41;97022.63;;;12.50;77.96
44385;BME280;30101;32.778;34.994;2023-01-31T09:51:47;97025.22;;;12.16;77.20
44385;BME280;30101;32.778;34.994;2023-01-31T10:02:10;97016.59;;;12.26;75.76
44385;BME280;30101;32.778;34.994;2023-01-31T10:07:28;97005.16;;;12.76;74.01
44385;BME280;30101;32.778;34.994;2023-01-31T10:12:43;97026.00;;;12.74;73.12
44385;BME280;30101;32.778;34.994;2023-01-31T10:18:09;97045.31;;;11.43;74.30
44385;BME280;30101;32.778;34.994;2023-01-31T10:23:22;97037.56;;;9.98;77.59
44385;BME280;30101;32.778;34.994;2023-01-31T10:33:54;97033.66;;;10.00;78.15
44385;BME280;30101;32.778;34.994;2023-01-31T10:49:54;97014.69;;;10.27;78.54
44385;BME280;30101;32.778;34.994;2023-01-31T11:00:39;97007.09;;;11.19;77.99
44385;BME280;30101;32.778;34.994;2023-01-31T11:05:51;97010.34;;;11.21;78.10
44385;BME280;30101;32.778;34.994;2023-01-31T11:10:56;97002.34;;;11.21;78.49
44385;BME280;30101;32.778;34.994;2023-01-31T11:16:00;97005.69;;;11.28;78.65
44385;BME280;30101;32.778;34.994;2023-01-31T11:21:06;97011.72;;;11.24;77.65
44385;BME280;30101;32.778;34.994;2023-01-31T11:26:11;96997.69;;;11.17;77.77
44385;BME280;30101;32.778;34.994;2023-01-31T11:31:18;97002.91;;;11.12;77.88
44385;BME280;30101;32.778;34.994;2023-01-31T11:36:23;97005.94;;;11.27;78.57
44385;BME280;30101;32.778;34.994;2023-01-31T11:41:35;96993.66;;;11.78;77.75
44385;BME280;30101;32.778;34.994;2023-01-31T11:47:01;97003.31;;;12.19;76.71
44385;BME280;30101;32.778;34.994;2023-01-31T11:52:16;97015.53;;;12.27;76.23
44385;BME280;30101;32.778;34.994;2023-01-31T11:57:24;97024.53;;;12.21;75.70
44385;BME280;30101;32.778;34.994;2023-01-31T12:02:39;97030.16;;;12.07;76.07
44385;BME280;30101;32.778;34.994;2023-01-31T12:07:49;97034.34;;;12.03;75.83
44385;BME280;30101;32.778;34.994;2023-01-31T12:12:57;97048.25;;;12.17;75.73
44385;BME280;30101;32.778;34.994;2023-01-31T12:29:34;97049.25;;;11.87;75.19
44385;BME280;30101;32.778;34.994;2023-01-31T12:50:48;97070.31;;;12.64;72.06
44385;BME280;30101;32.778;34.994;2023-01-31T13:01:03;97069.34;;;13.16;71.52
44385;BME280;30101;32.778;34.994;2023-01-31T13:06:12;97076.22;;;12.95;71.64
44385;BME280;30101;32.778;34.994;2023-01-31T13:11:21;97078.13;;;12.66;71.65
44385;BME280;30101;32.778;34.994;2023-01-31T13:16:44;97081.72;;;12.31;71.61
44385;BME280;30101;32.778;34.994;2023-01-31T13:21:54;97113.53;;;11.46;73.80
44385;BME280;30101;32.778;34.994;2023-01-31T13:27:20;97103.78;;;10.86;75.86
44385;BME280;30101;32.778;34.994;2023-01-31T13:32:33;97102.16;;;10.85;75.95
44385;BME280;30101;32.778;34.994;2023-01-31T13:37:39;97105.38;;;10.87;76.09
44385;BME280;30101;32.778;34.994;2023-01-31T13:42:49;97108.47;;;11.02;75.46
44385;BME280;30101;32.778;34.994;2023-01-31T13:47:57;97114.91;;;11.13;75.06
44385;BME280;30101;32.778;34.994;2023-01-31T13:53:05;97108.28;;;11.27;74.42
44385;BME280;30101;32.778;34.994;2023-01-31T13:58:29;97115.84;;;11.42;74.50
44385;BME280;30101;32.778;34.994;2023-01-31T14:04:19;97110.66;;;11.59;74.24
44385;BME280;30101;32.778;34.994;2023-01-31T14:09:30;97118.19;;;11.74;73.91
44385;BME280;30101;32.778;34.994;2023-01-31T14:36:23;97117.28;;;12.03;73.15
44385;BME280;30101;32.778;34.994;2023-01-31T14:52:17;97113.06;;;12.19;72.38
44385;BME280;30101;32.778;34.994;2023-01-31T14:57:27;97124.59;;;12.20;72.25
44385;BME280;30101;32.778;34.994;2023-01-31T15:07:35;97121.22;;;12.12;71.50
44385;BME280;30101;32.778;34.994;2023-01-31T15:12:58;97129.59;;;12.04;71.65
44385;BME280;30101;32.778;34.994;2023-01-31T15:18:12;97116.59;;;11.96;71.05
44385;BME280;30101;32.778;34.994;2023-01-31T15:23:24;97132.66;;;11.96;70.73
44385;BME280;30101;32.778;34.994;2023-01-31T15:28:36;97137.75;;;11.98;70.61
44385;BME280;30101;32.778;34.994;2023-01-31T15:33:44;97144.16;;;11.97;70.06
44385;BME280;30101;32.778;34.994;2023-01-31T15:38:56;97152.53;;;11.88;69.40
44385;BME280;30101;32.778;34.994;2023-01-31T15:44:22;97156.72;;;11.84;69.26
44385;BME280;30101;32.778;34.994;2023-01-31T15:49:32;97151.94;;;11.86;69.24
44385;BME280;30101;32.778;34.994;2023-01-31T15:55:04;97163.69;;;11.85;69.23
44385;BME280;30101;32.778;34.994;2023-01-31T16:00:19;97171.38;;;11.82;69.29
44385;BME280;30101;32.778;34.994;2023-01-31T16:05:35;97168.06;;;11.80;69.34
44385;BME280;30101;32.778;34.994;2023-01-31T16:10:40;97176.25;;;11.85;69.36
44385;BME280;30101;32.778;34.994;2023-01-31T16:15:46;97170.47;;;11.88;69.05
44385;BME280;30101;32.778;34.994;2023-01-31T16:20:53;97176.94;;;11.92;69.14
44385;BME280;30101;32.778;34.994;2023-01-31T16:26:23;97175.09;;;11.93;68.74
44385;BME280;30101;32.778;34.994;2023-01-31T16:31:31;97180.31;;;11.87;69.05
44385;BME280;30101;32.778;34.994;2023-01-31T16:41:53;97182.66;;;11.96;69.16
44385;BME280;30101;32.778;34.994;2023-01-31T16:46:59;97188.13;;;12.01;68.85
44385;BME280;30101;32.778;34.994;2023-01-31T16:52:26;97173.00;;;12.06;68.56
44385;BME280;30101;32.778;34.994;2023-01-31T17:02:39;97179.16;;;12.19;68.82
44385;BME280;30101;32.778;34.994;2023-01-31T17:07:45;97179.88;;;12.14;69.15
44385;BME280;30101;32.778;34.994;2023-01-31T17:12:50;97170.44;;;12.11;68.84
44385;BME280;30101;32.778;34.994;2023-01-31T17:17:56;97176.25;;;12.20;68.66
44385;BME280;30101;32.778;34.994;2023-01-31T17:23:06;97182.53;;;12.14;69.67
44385;BME280;30101;32.778;34.994;2023-01-31T17:28:13;97199.59;;;11.78;70.44
44385;BME280;30101;32.778;34.994;2023-01-31T17:33:16;97193.22;;;10.95;72.90
44385;BME280;30101;32.778;34.994;2023-01-31T17:38:19;97195.72;;;10.42;73.96
44385;BME280;30101;32.778;34.994;2023-01-31T17:43:23;97196.22;;;10.14;74.39
44385;BME280;30101;32.778;34.994;2023-01-31T17:48:27;97203.88;;;10.04;74.56
44385;BME280;30101;32.778;34.994;2023-01-31T17:53:30;97210.91;;;9.98;73.79
44385;BME280;30101;32.778;34.994;2023-01-31T17:58:42;97209.88;;;9.99;74.10
44385;BME280;30101;32.778;34.994;2023-01-31T18:03:45;97206.13;;;10.07;73.55
44385;BME280;30101;32.778;34.994;2023-01-31T18:08:50;97214.06;;;10.13;74.00
44385;BME280;30101;32.778;34.994;2023-01-31T18:13:56;97220.94;;;10.27;74.08
44385;BME280;30101;32.778;34.994;2023-01-31T18:19:05;97224.41;;;10.46;73.34
44385;BME280;30101;32.778;34.994;2023-01-31T18:24:08;97230.66;;;10.59;73.17
44385;BME280;30101;32.778;34.994;2023-01-31T18:29:13;97218.19;;;10.71;73.27
44385;BME280;30101;32.778;34.994;2023-01-31T18:34:17;97217.53;;;10.75;74.11
44385;BME280;30101;32.778;34.994;2023-01-31T18:39:20;97241.69;;;10.25;75.20
44385;BME280;30101;32.778;34.994;2023-01-31T18:44:23;97229.47;;;10.11;76.25
44385;BME280;30101;32.778;34.994;2023-01-31T18:49:26;97242.91;;;10.23;74.88
44385;BME280;30101;32.778;34.994;2023-01-31T18:54:32;97236.56;;;10.42;75.75
44385;BME280;30101;32.778;34.994;2023-01-31T18:59:36;97231.47;;;10.59;75.55
44385;BME280;30101;32.778;34.994;2023-01-31T19:04:39;97223.28;;;10.72;75.60
44385;BME280;30101;32.778;34.994;2023-01-31T19:09:42;97216.91;;;10.55;75.93
44385;BME280;30101;32.778;34.994;2023-01-31T19:14:45;97211.53;;;10.43;77.45
44385;BME280;30101;32.778;34.994;2023-01-31T19:19:50;97216.09;;;10.36;77.39
44385;BME280;30101;32.778;34.994;2023-01-31T19:24:54;97199.34;;;10.29;77.01
44385;BME280;30101;32.778;34.994;2023-01-31T19:29:57;97202.53;;;10.19;77.72
44385;BME280;30101;32.778;34.994;2023-01-31T19:35:00;97205.44;;;10.11;78.02
44385;BME280;30101;32.778;34.994;2023-01-31T19:40:04;97199.53;;;10.09;77.37
44385;BME280;30101;32.778;34.994;2023-01-31T19:45:08;97206.88;;;10.14;77.56
44385;BME280;30101;32.778;34.994;2023-01-31T19:50:11;97208.06;;;10.18;77.33
44385;BME280;30101;32.778;34.994;2023-01-31T19:55:14;97202.03;;;10.29;77.28
44385;BME280;30101;32.778;34.994;2023-01-31T20:00:19;97184.06;;;10.54;76.87
44385;BME280;30101;32.778;34.994;2023-01-31T20:05:23;97187.34;;;10.75;76.47
44385;BME280;30101;32.778;34.994;2023-01-31T20:10:26;97187.47;;;10.80;76.52
44385;BME280;30101;32.778;34.994;2023-01-31T20:15:30;97178.13;;;10.71;77.76
44385;BME280;30101;32.778;34.994;2023-01-31T20:20:33;97196.16;;;10.75;78.92
44385;BME280;30101;32.778;34.994;2023-01-31T20:25:36;97193.59;;;10.80;78.85
44385;BME280;30101;32.778;34.994;2023-01-31T20:30:40;97195.03;;;10.83;78.53
44385;BME280;30101;32.778;34.994;2023-01-31T20:35:43;97177.97;;;10.84;78.63
44385;BME280;30101;32.778;34.994;2023-01-31T20:40:51;97178.78;;;10.85;78.33
44385;BME280;30101;32.778;34.994;2023-01-31T20:46:07;97190.13;;;10.80;78.32
44385;BME280;30101;32.778;34.994;2023-01-31T20:51:11;97195.00;;;10.10;78.70
44385;BME280;30101;32.778;34.994;2023-01-31T20:56:15;97179.34;;;9.77;79.86
44385;BME280;30101;32.778;34.994;2023-01-31T21:01:18;97168.91;;;9.75;79.93
44385;BME280;30101;32.778;34.994;2023-01-31T21:06:21;97171.50;;;9.82;79.11
44385;BME280;30101;32.778;34.994;2023-01-31T21:11:24;97149.72;;;9.85;79.39
44385;BME280;30101;32.778;34.994;2023-01-31T21:16:29;97132.47;;;9.87;79.54
44385;BME280;30101;32.778;34.994;2023-01-31T21:21:32;97143.16;;;9.87;78.95
44385;BME280;30101;32.778;34.994;2023-01-31T21:26:35;97139.66;;;9.87;79.20
44385;BME280;30101;32.778;34.994;2023-01-31T21:31:39;97142.91;;;9.89;79.04
44385;BME280;30101;32.778;34.994;2023-01-31T21:36:42;97149.22;;;9.94;79.03
44385;BME280;30101;32.778;34.994;2023-01-31T21:41:47;97154.03;;;10.04;79.61
44385;BME280;30101;32.778;34.994;2023-01-31T21:46:50;97166.72;;;10.09;79.19
44385;BME280;30101;32.778;34.994;2023-01-31T21:51:53;97158.63;;;10.15;79.45
44385;BME280;30101;32.778;34.994;2023-01-31T21:56:57;97163.69;;;10.23;79.19
44385;BME280;30101;32.778;34.994;2023-01-31T22:02:00;97153.19;;;10.29;79.38
44385;BME280;30101;32.778;34.994;2023-01-31T22:07:03;97149.28;;;10.31;79.30
44385;BME280;30101;32.778;34.994;2023-01-31T22:12:06;97154.31;;;10.39;79.31
44385;BME280;30101;32.778;34.994;2023-01-31T22:17:10;97144.59;;;10.45;79.48
44385;BME280;30101;32.778;34.994;2023-01-31T22:22:13;97142.06;;;10.50;78.99
44385;BME280;30101;32.778;34.994;2023-01-31T22:27:17;97125.97;;;10.57;78.97
44385;BME280;30101;32.778;34.994;2023-01-31T22:32:20;97118.31;;;10.60;79.29
44385;BME280;30101;32.778;34.994;2023-01-31T22:37:23;97104.28;;;10.65;78.46
44385;BME280;30101;32.778;34.994;2023-01-31T22:42:26;97112.22;;;10.71;79.10
44385;BME280;30101;32.778;34.994;2023-01-31T22:47:30;97095.09;;;10.61;78.54
44385;BME280;30101;32.778;34.994;2023-01-31T22:52:35;97110.25;;;10.48;79.45
44385;BME280;30101;32.778;34.994;2023-01-31T22:57:39;97098.41;;;10.44;80.06
44385;BME280;30101;32.778;34.994;2023-01-31T23:02:42;97108.47;;;10.42;79.74
44385;BME280;30101;32.778;34.994;2023-01-31T23:07:45;97114.84;;;10.41;79.66
44385;BME280;30101;32.778;34.994;2023-01-31T23:12:49;97122.72;;;10.36;79.31
44385;BME280;30101;32.778;34.994;2023-01-31T23:17:52;97111.06;;;10.31;80.09
44385;BME280;30101;32.778;34.994;2023-01-31T23:22:56;97124.06;;;10.27;80.66
44385;BME280;30101;32.778;34.994;2023-01-31T23:28:00;97112.81;;;10.25;79.99
44385;BME280;30101;32.778;34.994;2023-01-31T23:33:03;97113.63;;;10.25;80.24
44385;BME280;30101;32.778;34.994;2023-01-31T23:38:07;97111.53;;;10.27;80.63
44385;BME280;30101;32.778;34.994;2023-01-31T23:43:10;97090.25;;;10.21;80.36
44385;BME280;30101;32.778;34.994;2023-01-31T23:48:13;97071.66;;;10.14;81.07
44385;BME280;30101;32.778;34.994;2023-01-31T23:53:17;97062.59;;;10.15;81.29
44385;BME280;30101;32.778;34.994;2023-01-31T23:58:20;97058.91;;;10.16;81.26
